Disclaimer

Please do not use the information listed here in-flight or in-navigation, as they are not provided to us by the airports but are provided by volunteers, so they might be outdated.

Search


Regions


Airport information page

Radio informations:
Approach (APP) - 127.9 MHz

Airport informations:
Latitude: 55° 33' 52.87" N
Longitude: 052° 05' 33.04" E
Elevation: 643 feet - 196 meters
Operating hours: 24 hour operations
Operating agency: Civil government, landing fees and diplomatic clearance may be required
Timezone: UTC+3(+4DT) - Last Sunday in March to last Sunday in October
Fuel: N/A

Runway information:
03/21 - 5620 x 190 feet< - >1713 x 58 meters
04/22 - 8222 x 138 feet< - >2506 x 42 meters

Recent METARs:
UWKE 180900Z 24007MPS 9999 OVC017 00/M04 Q1018 R21/310055 NOSIG RMK QFE746/0995
UWKE 180930Z 23006MPS 9999 OVC020 00/M04 Q1018 R21/310055 NOSIG RMK QFE746/0995
UWKE 181000Z 24007MPS 9999 OVC020 01/M04 Q1018 R21/310055 NOSIG RMK QFE746/0995

Airport on the map: